Terminal Aerodrome Forecast
Issued by NWS

Current Version | Previous Version | Text Only | Print | Product List | Glossary On
Versions: 1 2 3 4 5 6 7 8 9 10 11 12 13
000
FTUS43 KPAH 050520
TAFCGI
TAF
KCGI 050520Z 0506/0606 19005KT P6SM SCT060 SCT250
     FM051500 19010G20KT P6SM SCT035 BKN070
     FM060100 17006KT P6SM SCT070=

USA.gov is the U.S. government's official web portal to all federal, state and local government web resources and services.